sensor_id;sensor_type;location;lat;lon;timestamp;temperature;humidity
9414;DHT22;4746;35.664;139.738;2023-07-22T00:00:45;30.40;99.90
9414;DHT22;4746;35.664;139.738;2023-07-22T00:03:24;30.40;99.90
9414;DHT22;4746;35.664;139.738;2023-07-22T00:06:08;30.40;99.90
9414;DHT22;4746;35.664;139.738;2023-07-22T00:08:38;30.40;99.90
9414;DHT22;4746;35.664;139.738;2023-07-22T00:11:06;30.30;99.90
9414;DHT22;4746;35.664;139.738;2023-07-22T00:13:35;30.30;99.90
9414;DHT22;4746;35.664;139.738;2023-07-22T00:16:03;30.30;99.90
9414;DHT22;4746;35.664;139.738;2023-07-22T00:18:30;30.40;99.90
9414;DHT22;4746;35.664;139.738;2023-07-22T00:21:00;30.40;99.90
9414;DHT22;4746;35.664;139.738;2023-07-22T00:23:27;30.50;99.90
9414;DHT22;4746;35.664;139.738;2023-07-22T00:25:56;30.50;99.90
9414;DHT22;4746;35.664;139.738;2023-07-22T00:28:23;30.60;99.90
9414;DHT22;4746;35.664;139.738;2023-07-22T00:30:51;30.60;99.90
9414;DHT22;4746;35.664;139.738;2023-07-22T00:33:19;30.40;99.90
9414;DHT22;4746;35.664;139.738;2023-07-22T00:35:50;30.40;99.90
9414;DHT22;4746;35.664;139.738;2023-07-22T00:38:18;30.40;99.90
9414;DHT22;4746;35.664;139.738;2023-07-22T00:40:46;30.40;99.90
9414;DHT22;4746;35.664;139.738;2023-07-22T00:43:14;30.60;99.90
9414;DHT22;4746;35.664;139.738;2023-07-22T00:45:42;30.70;99.90
9414;DHT22;4746;35.664;139.738;2023-07-22T00:48:10;30.60;99.90
9414;DHT22;4746;35.664;139.738;2023-07-22T00:50:40;30.50;99.90
9414;DHT22;4746;35.664;139.738;2023-07-22T00:53:07;30.50;99.90
9414;DHT22;4746;35.664;139.738;2023-07-22T00:55:35;30.40;99.90
9414;DHT22;4746;35.664;139.738;2023-07-22T00:58:07;30.40;99.90
9414;DHT22;4746;35.664;139.738;2023-07-22T01:00:35;30.50;99.90
9414;DHT22;4746;35.664;139.738;2023-07-22T01:03:03;30.60;99.90
9414;DHT22;4746;35.664;139.738;2023-07-22T01:05:34;30.60;99.90
9414;DHT22;4746;35.664;139.738;2023-07-22T01:08:03;30.70;99.90
9414;DHT22;4746;35.664;139.738;2023-07-22T01:10:31;30.80;99.90
9414;DHT22;4746;35.664;139.738;2023-07-22T01:12:58;30.90;99.90
9414;DHT22;4746;35.664;139.738;2023-07-22T01:15:26;30.90;99.90
9414;DHT22;4746;35.664;139.738;2023-07-22T01:17:55;31.10;99.90
9414;DHT22;4746;35.664;139.738;2023-07-22T01:20:29;31.20;99.90
9414;DHT22;4746;35.664;139.738;2023-07-22T01:22:57;31.30;99.90
9414;DHT22;4746;35.664;139.738;2023-07-22T01:25:25;31.30;99.90
9414;DHT22;4746;35.664;139.738;2023-07-22T01:27:53;31.30;99.90
9414;DHT22;4746;35.664;139.738;2023-07-22T01:30:21;31.20;99.90
9414;DHT22;4746;35.664;139.738;2023-07-22T01:32:49;31.20;99.90
9414;DHT22;4746;35.664;139.738;2023-07-22T01:35:17;31.20;99.90
9414;DHT22;4746;35.664;139.738;2023-07-22T01:37:45;31.30;99.90
9414;DHT22;4746;35.664;139.738;2023-07-22T01:40:13;31.30;99.90
9414;DHT22;4746;35.664;139.738;2023-07-22T01:42:42;31.30;99.90
9414;DHT22;4746;35.664;139.738;2023-07-22T01:45:10;31.30;99.90
9414;DHT22;4746;35.664;139.738;2023-07-22T01:47:38;31.30;99.90
9414;DHT22;4746;35.664;139.738;2023-07-22T01:50:09;31.40;99.90
9414;DHT22;4746;35.664;139.738;2023-07-22T01:52:40;31.50;99.90
9414;DHT22;4746;35.664;139.738;2023-07-22T01:55:08;31.60;99.90
9414;DHT22;4746;35.664;139.738;2023-07-22T01:57:37;31.80;99.90
9414;DHT22;4746;35.664;139.738;2023-07-22T02:00:06;31.70;99.90
9414;DHT22;4746;35.664;139.738;2023-07-22T02:02:42;31.80;99.90
9414;DHT22;4746;35.664;139.738;2023-07-22T02:05:10;31.80;99.90
9414;DHT22;4746;35.664;139.738;2023-07-22T02:07:39;31.70;99.90
9414;DHT22;4746;35.664;139.738;2023-07-22T02:10:08;31.70;99.90
9414;DHT22;4746;35.664;139.738;2023-07-22T02:12:39;31.80;99.90
9414;DHT22;4746;35.664;139.738;2023-07-22T02:15:07;31.90;99.90
9414;DHT22;4746;35.664;139.738;2023-07-22T02:17:35;32.00;99.90
9414;DHT22;4746;35.664;139.738;2023-07-22T02:20:03;32.10;99.90
9414;DHT22;4746;35.664;139.738;2023-07-22T02:22:31;32.20;99.90
9414;DHT22;4746;35.664;139.738;2023-07-22T02:24:59;32.20;99.90
9414;DHT22;4746;35.664;139.738;2023-07-22T02:27:26;32.10;99.90
9414;DHT22;4746;35.664;139.738;2023-07-22T02:29:54;32.30;99.90
9414;DHT22;4746;35.664;139.738;2023-07-22T02:32:21;32.40;99.90
9414;DHT22;4746;35.664;139.738;2023-07-22T02:34:49;32.50;99.90
9414;DHT22;4746;35.664;139.738;2023-07-22T02:37:16;32.50;99.90
9414;DHT22;4746;35.664;139.738;2023-07-22T02:39:44;32.60;99.90
9414;DHT22;4746;35.664;139.738;2023-07-22T02:42:11;32.70;99.90
9414;DHT22;4746;35.664;139.738;2023-07-22T02:44:39;32.70;99.90
9414;DHT22;4746;35.664;139.738;2023-07-22T02:47:06;32.70;99.90
9414;DHT22;4746;35.664;139.738;2023-07-22T02:49:34;32.80;99.90
9414;DHT22;4746;35.664;139.738;2023-07-22T02:52:04;32.90;99.90
9414;DHT22;4746;35.664;139.738;2023-07-22T02:54:39;32.90;99.90
9414;DHT22;4746;35.664;139.738;2023-07-22T02:57:10;32.90;99.90
9414;DHT22;4746;35.664;139.738;2023-07-22T02:59:43;33.00;99.90
9414;DHT22;4746;35.664;139.738;2023-07-22T03:02:11;33.10;99.90
9414;DHT22;4746;35.664;139.738;2023-07-22T03:04:40;33.00;99.90
9414;DHT22;4746;35.664;139.738;2023-07-22T03:07:08;33.00;99.90
9414;DHT22;4746;35.664;139.738;2023-07-22T03:09:35;33.10;99.90
9414;DHT22;4746;35.664;139.738;2023-07-22T03:12:03;33.10;99.90
9414;DHT22;4746;35.664;139.738;2023-07-22T03:14:33;32.90;99.90
9414;DHT22;4746;35.664;139.738;2023-07-22T03:17:03;32.80;99.90
9414;DHT22;4746;35.664;139.738;2023-07-22T03:19:31;32.70;99.90
9414;DHT22;4746;35.664;139.738;2023-07-22T03:22:02;32.90;99.90
9414;DHT22;4746;35.664;139.738;2023-07-22T03:24:29;33.00;99.90
9414;DHT22;4746;35.664;139.738;2023-07-22T03:26:57;33.00;99.90
9414;DHT22;4746;35.664;139.738;2023-07-22T03:29:26;33.00;99.90
9414;DHT22;4746;35.664;139.738;2023-07-22T03:31:56;33.10;99.90
9414;DHT22;4746;35.664;139.738;2023-07-22T03:34:24;33.10;99.90
9414;DHT22;4746;35.664;139.738;2023-07-22T03:36:51;33.20;99.90
9414;DHT22;4746;35.664;139.738;2023-07-22T03:39:19;33.20;99.90
9414;DHT22;4746;35.664;139.738;2023-07-22T03:41:46;33.40;99.90
9414;DHT22;4746;35.664;139.738;2023-07-22T03:44:14;33.50;99.90
9414;DHT22;4746;35.664;139.738;2023-07-22T03:46:42;33.80;99.90
9414;DHT22;4746;35.664;139.738;2023-07-22T03:49:09;34.00;99.90
9414;DHT22;4746;35.664;139.738;2023-07-22T03:51:37;34.10;99.90
9414;DHT22;4746;35.664;139.738;2023-07-22T03:54:05;34.20;99.90
9414;DHT22;4746;35.664;139.738;2023-07-22T03:56:33;34.30;99.90
9414;DHT22;4746;35.664;139.738;2023-07-22T03:59:01;34.40;99.90
9414;DHT22;4746;35.664;139.738;2023-07-22T04:01:28;34.60;99.90
9414;DHT22;4746;35.664;139.738;2023-07-22T04:03:56;34.80;99.90
9414;DHT22;4746;35.664;139.738;2023-07-22T04:06:23;34.80;99.90
9414;DHT22;4746;35.664;139.738;2023-07-22T04:08:52;34.90;99.90
9414;DHT22;4746;35.664;139.738;2023-07-22T04:11:19;35.00;99.90
9414;DHT22;4746;35.664;139.738;2023-07-22T04:13:48;35.00;99.90
9414;DHT22;4746;35.664;139.738;2023-07-22T04:16:16;34.90;99.90
9414;DHT22;4746;35.664;139.738;2023-07-22T04:18:43;34.80;99.90
9414;DHT22;4746;35.664;139.738;2023-07-22T04:21:11;34.80;99.90
9414;DHT22;4746;35.664;139.738;2023-07-22T04:23:40;34.70;99.90
9414;DHT22;4746;35.664;139.738;2023-07-22T04:26:07;34.70;99.90
9414;DHT22;4746;35.664;139.738;2023-07-22T04:28:35;34.70;99.90
9414;DHT22;4746;35.664;139.738;2023-07-22T04:31:03;34.60;99.90
9414;DHT22;4746;35.664;139.738;2023-07-22T04:33:31;34.50;99.90
9414;DHT22;4746;35.664;139.738;2023-07-22T04:35:59;34.60;99.90
9414;DHT22;4746;35.664;139.738;2023-07-22T04:38:27;34.70;99.90
9414;DHT22;4746;35.664;139.738;2023-07-22T04:40:55;34.80;99.90
9414;DHT22;4746;35.664;139.738;2023-07-22T04:43:26;34.70;99.90
9414;DHT22;4746;35.664;139.738;2023-07-22T04:45:54;34.70;99.90
9414;DHT22;4746;35.664;139.738;2023-07-22T04:48:22;34.80;99.90
9414;DHT22;4746;35.664;139.738;2023-07-22T04:50:50;34.90;99.90
9414;DHT22;4746;35.664;139.738;2023-07-22T04:53:18;35.10;99.90
9414;DHT22;4746;35.664;139.738;2023-07-22T04:55:46;35.20;99.90
9414;DHT22;4746;35.664;139.738;2023-07-22T04:58:16;35.30;99.90
9414;DHT22;4746;35.664;139.738;2023-07-22T05:00:43;35.50;99.90
9414;DHT22;4746;35.664;139.738;2023-07-22T05:03:11;35.50;99.90
9414;DHT22;4746;35.664;139.738;2023-07-22T05:05:39;35.50;99.90
9414;DHT22;4746;35.664;139.738;2023-07-22T05:08:08;35.50;99.90
9414;DHT22;4746;35.664;139.738;2023-07-22T05:10:37;35.40;99.90
9414;DHT22;4746;35.664;139.738;2023-07-22T05:13:04;35.40;99.90
9414;DHT22;4746;35.664;139.738;2023-07-22T05:15:32;35.60;99.90
9414;DHT22;4746;35.664;139.738;2023-07-22T05:17:59;35.90;99.90
9414;DHT22;4746;35.664;139.738;2023-07-22T05:20:27;36.00;99.90
9414;DHT22;4746;35.664;139.738;2023-07-22T05:22:55;36.10;99.90
9414;DHT22;4746;35.664;139.738;2023-07-22T05:25:23;36.20;99.90
9414;DHT22;4746;35.664;139.738;2023-07-22T05:27:50;36.20;99.90
9414;DHT22;4746;35.664;139.738;2023-07-22T05:30:18;36.30;99.90
9414;DHT22;4746;35.664;139.738;2023-07-22T05:32:45;36.30;99.90
9414;DHT22;4746;35.664;139.738;2023-07-22T05:35:13;36.30;99.90
9414;DHT22;4746;35.664;139.738;2023-07-22T05:37:40;36.30;99.90
9414;DHT22;4746;35.664;139.738;2023-07-22T05:40:09;36.50;99.90
9414;DHT22;4746;35.664;139.738;2023-07-22T05:42:37;36.60;99.90
9414;DHT22;4746;35.664;139.738;2023-07-22T05:45:05;36.90;99.90
9414;DHT22;4746;35.664;139.738;2023-07-22T05:47:32;37.20;99.90
9414;DHT22;4746;35.664;139.738;2023-07-22T05:50:00;37.40;99.90
9414;DHT22;4746;35.664;139.738;2023-07-22T05:52:27;37.50;99.90
9414;DHT22;4746;35.664;139.738;2023-07-22T05:54:55;37.90;99.90
9414;DHT22;4746;35.664;139.738;2023-07-22T05:57:22;38.20;99.90
9414;DHT22;4746;35.664;139.738;2023-07-22T05:59:50;38.50;99.90
9414;DHT22;4746;35.664;139.738;2023-07-22T06:02:18;38.70;99.90
9414;DHT22;4746;35.664;139.738;2023-07-22T06:04:45;39.00;99.90
9414;DHT22;4746;35.664;139.738;2023-07-22T06:07:13;39.20;99.90
9414;DHT22;4746;35.664;139.738;2023-07-22T06:09:41;39.30;99.90
9414;DHT22;4746;35.664;139.738;2023-07-22T06:12:09;39.30;99.90
9414;DHT22;4746;35.664;139.738;2023-07-22T06:14:36;39.50;99.90
9414;DHT22;4746;35.664;139.738;2023-07-22T06:17:04;39.80;99.90
9414;DHT22;4746;35.664;139.738;2023-07-22T06:19:31;40.10;99.90
9414;DHT22;4746;35.664;139.738;2023-07-22T06:21:59;40.50;99.90
9414;DHT22;4746;35.664;139.738;2023-07-22T06:24:27;40.80;99.90
9414;DHT22;4746;35.664;139.738;2023-07-22T06:26:54;40.70;99.90
9414;DHT22;4746;35.664;139.738;2023-07-22T06:29:22;40.50;99.90
9414;DHT22;4746;35.664;139.738;2023-07-22T06:31:49;40.60;99.90
9414;DHT22;4746;35.664;139.738;2023-07-22T06:34:17;40.90;99.90
9414;DHT22;4746;35.664;139.738;2023-07-22T06:36:44;41.50;99.90
9414;DHT22;4746;35.664;139.738;2023-07-22T06:39:14;41.80;99.90
9414;DHT22;4746;35.664;139.738;2023-07-22T06:41:41;42.20;99.90
9414;DHT22;4746;35.664;139.738;2023-07-22T06:44:09;41.90;99.90
9414;DHT22;4746;35.664;139.738;2023-07-22T06:46:36;41.60;99.90
9414;DHT22;4746;35.664;139.738;2023-07-22T06:49:04;41.60;99.90
9414;DHT22;4746;35.664;139.738;2023-07-22T06:51:31;42.10;99.90
9414;DHT22;4746;35.664;139.738;2023-07-22T06:53:59;42.40;98.30
9414;DHT22;4746;35.664;139.738;2023-07-22T06:56:27;42.20;97.70
9414;DHT22;4746;35.664;139.738;2023-07-22T06:58:54;42.00;97.30
9414;DHT22;4746;35.664;139.738;2023-07-22T07:01:23;42.20;97.10
9414;DHT22;4746;35.664;139.738;2023-07-22T07:03:50;42.50;96.00
9414;DHT22;4746;35.664;139.738;2023-07-22T07:06:18;42.50;94.80
9414;DHT22;4746;35.664;139.738;2023-07-22T07:08:45;42.10;94.40
9414;DHT22;4746;35.664;139.738;2023-07-22T07:11:13;41.50;95.30
9414;DHT22;4746;35.664;139.738;2023-07-22T07:13:40;41.30;96.50
9414;DHT22;4746;35.664;139.738;2023-07-22T07:16:25;41.90;97.20
9414;DHT22;4746;35.664;139.738;2023-07-22T07:18:54;42.70;93.90
9414;DHT22;4746;35.664;139.738;2023-07-22T07:21:23;43.70;93.10
9414;DHT22;4746;35.664;139.738;2023-07-22T07:23:51;44.60;89.30
9414;DHT22;4746;35.664;139.738;2023-07-22T07:26:19;45.50;82.40
9414;DHT22;4746;35.664;139.738;2023-07-22T07:28:49;46.30;74.80
9414;DHT22;4746;35.664;139.738;2023-07-22T07:31:17;46.70;66.50
9414;DHT22;4746;35.664;139.738;2023-07-22T07:33:46;47.10;60.60
9414;DHT22;4746;35.664;139.738;2023-07-22T07:36:14;47.40;57.40
9414;DHT22;4746;35.664;139.738;2023-07-22T07:38:41;47.70;54.20
9414;DHT22;4746;35.664;139.738;2023-07-22T07:41:10;47.60;52.80
9414;DHT22;4746;35.664;139.738;2023-07-22T07:43:42;47.40;51.00
9414;DHT22;4746;35.664;139.738;2023-07-22T07:46:17;47.30;50.80
9414;DHT22;4746;35.664;139.738;2023-07-22T07:48:58;47.70;49.20
9414;DHT22;4746;35.664;139.738;2023-07-22T07:51:29;48.30;48.70
9414;DHT22;4746;35.664;139.738;2023-07-22T07:53:59;48.60;46.70
9414;DHT22;4746;35.664;139.738;2023-07-22T07:56:26;48.80;45.30
9414;DHT22;4746;35.664;139.738;2023-07-22T07:58:55;48.90;44.30
9414;DHT22;4746;35.664;139.738;2023-07-22T08:01:22;48.90;43.50
9414;DHT22;4746;35.664;139.738;2023-07-22T08:03:50;49.20;42.40
9414;DHT22;4746;35.664;139.738;2023-07-22T08:06:18;49.30;42.10
9414;DHT22;4746;35.664;139.738;2023-07-22T08:08:45;49.30;40.80
9414;DHT22;4746;35.664;139.738;2023-07-22T08:11:14;49.40;40.10
9414;DHT22;4746;35.664;139.738;2023-07-22T08:13:43;49.20;40.50
9414;DHT22;4746;35.664;139.738;2023-07-22T08:16:13;49.30;40.40
9414;DHT22;4746;35.664;139.738;2023-07-22T08:18:42;49.10;39.90
9414;DHT22;4746;35.664;139.738;2023-07-22T08:21:14;48.30;39.70
9414;DHT22;4746;35.664;139.738;2023-07-22T08:23:41;47.90;40.50
9414;DHT22;4746;35.664;139.738;2023-07-22T08:26:12;47.90;40.60
9414;DHT22;4746;35.664;139.738;2023-07-22T08:28:40;47.80;40.20
9414;DHT22;4746;35.664;139.738;2023-07-22T08:31:08;47.60;40.50
9414;DHT22;4746;35.664;139.738;2023-07-22T08:33:35;47.40;41.50
9414;DHT22;4746;35.664;139.738;2023-07-22T08:36:03;47.20;41.90
9414;DHT22;4746;35.664;139.738;2023-07-22T08:38:32;47.20;42.10
9414;DHT22;4746;35.664;139.738;2023-07-22T08:41:00;47.10;42.00
9414;DHT22;4746;35.664;139.738;2023-07-22T08:43:28;47.10;42.40
9414;DHT22;4746;35.664;139.738;2023-07-22T08:46:00;46.90;42.40
9414;DHT22;4746;35.664;139.738;2023-07-22T08:48:30;46.60;42.70
9414;DHT22;4746;35.664;139.738;2023-07-22T08:51:06;45.90;43.40
9414;DHT22;4746;35.664;139.738;2023-07-22T08:53:40;44.80;44.60
9414;DHT22;4746;35.664;139.738;2023-07-22T08:56:09;43.50;46.80
9414;DHT22;4746;35.664;139.738;2023-07-22T08:58:38;42.40;49.50
9414;DHT22;4746;35.664;139.738;2023-07-22T09:01:08;41.80;53.00
9414;DHT22;4746;35.664;139.738;2023-07-22T09:03:36;41.40;55.60
9414;DHT22;4746;35.664;139.738;2023-07-22T09:06:06;40.80;59.00
9414;DHT22;4746;35.664;139.738;2023-07-22T09:08:34;40.30;65.40
9414;DHT22;4746;35.664;139.738;2023-07-22T09:11:02;39.90;72.70
9414;DHT22;4746;35.664;139.738;2023-07-22T09:13:30;39.50;77.90
9414;DHT22;4746;35.664;139.738;2023-07-22T09:15:58;39.00;86.50
9414;DHT22;4746;35.664;139.738;2023-07-22T09:18:26;38.30;93.10
9414;DHT22;4746;35.664;139.738;2023-07-22T09:20:54;37.70;99.20
9414;DHT22;4746;35.664;139.738;2023-07-22T09:23:41;37.10;99.90
9414;DHT22;4746;35.664;139.738;2023-07-22T09:26:18;36.40;99.90
9414;DHT22;4746;35.664;139.738;2023-07-22T09:28:54;35.80;99.90
9414;DHT22;4746;35.664;139.738;2023-07-22T09:31:25;35.10;99.90
9414;DHT22;4746;35.664;139.738;2023-07-22T09:33:54;34.70;99.90
9414;DHT22;4746;35.664;139.738;2023-07-22T09:36:54;34.30;99.90
9414;DHT22;4746;35.664;139.738;2023-07-22T09:39:24;33.80;99.90
9414;DHT22;4746;35.664;139.738;2023-07-22T09:41:51;33.60;99.90
9414;DHT22;4746;35.664;139.738;2023-07-22T09:44:19;33.30;99.90
9414;DHT22;4746;35.664;139.738;2023-07-22T09:46:51;33.00;99.90
9414;DHT22;4746;35.664;139.738;2023-07-22T09:49:18;32.70;99.90
9414;DHT22;4746;35.664;139.738;2023-07-22T09:51:47;32.50;99.90
9414;DHT22;4746;35.664;139.738;2023-07-22T09:54:19;32.20;99.90
9414;DHT22;4746;35.664;139.738;2023-07-22T09:56:48;32.00;99.90
9414;DHT22;4746;35.664;139.738;2023-07-22T09:59:18;31.80;99.90
9414;DHT22;4746;35.664;139.738;2023-07-22T10:01:50;31.60;99.90
9414;DHT22;4746;35.664;139.738;2023-07-22T10:04:18;31.50;99.90
9414;DHT22;4746;35.664;139.738;2023-07-22T10:06:52;31.30;99.90
9414;DHT22;4746;35.664;139.738;2023-07-22T10:09:21;31.20;99.90
9414;DHT22;4746;35.664;139.738;2023-07-22T10:11:53;31.00;99.90
9414;DHT22;4746;35.664;139.738;2023-07-22T10:14:21;30.80;99.90
9414;DHT22;4746;35.664;139.738;2023-07-22T10:16:50;30.60;99.90
9414;DHT22;4746;35.664;139.738;2023-07-22T10:19:18;30.50;99.90
9414;DHT22;4746;35.664;139.738;2023-07-22T10:21:52;30.40;99.90
9414;DHT22;4746;35.664;139.738;2023-07-22T10:24:21;30.20;99.90
9414;DHT22;4746;35.664;139.738;2023-07-22T10:26:48;30.10;99.90
9414;DHT22;4746;35.664;139.738;2023-07-22T10:29:20;30.00;99.90
9414;DHT22;4746;35.664;139.738;2023-07-22T10:31:47;29.80;99.90
9414;DHT22;4746;35.664;139.738;2023-07-22T10:34:21;29.80;99.90
9414;DHT22;4746;35.664;139.738;2023-07-22T10:36:55;29.80;99.90
9414;DHT22;4746;35.664;139.738;2023-07-22T10:39:28;29.80;99.90
9414;DHT22;4746;35.664;139.738;2023-07-22T10:42:05;29.70;99.90
9414;DHT22;4746;35.664;139.738;2023-07-22T10:44:38;29.60;99.90
9414;DHT22;4746;35.664;139.738;2023-07-22T10:47:07;29.50;99.90
9414;DHT22;4746;35.664;139.738;2023-07-22T10:49:46;29.50;99.90
9414;DHT22;4746;35.664;139.738;2023-07-22T10:52:15;29.40;99.90
9414;DHT22;4746;35.664;139.738;2023-07-22T10:55:15;29.30;99.90
9414;DHT22;4746;35.664;139.738;2023-07-22T10:57:50;29.20;99.90
9414;DHT22;4746;35.664;139.738;2023-07-22T11:00:21;29.20;99.90
9414;DHT22;4746;35.664;139.738;2023-07-22T11:03:09;29.10;99.90
9414;DHT22;4746;35.664;139.738;2023-07-22T11:05:49;29.10;99.90
9414;DHT22;4746;35.664;139.738;2023-07-22T11:08:39;29.10;99.90
9414;DHT22;4746;35.664;139.738;2023-07-22T11:11:07;29.10;99.90
9414;DHT22;4746;35.664;139.738;2023-07-22T11:13:37;29.10;99.90
9414;DHT22;4746;35.664;139.738;2023-07-22T11:16:10;29.10;99.90
9414;DHT22;4746;35.664;139.738;2023-07-22T11:18:42;29.10;99.90
9414;DHT22;4746;35.664;139.738;2023-07-22T11:21:13;29.10;99.90
9414;DHT22;4746;35.664;139.738;2023-07-22T11:23:40;29.10;99.90
9414;DHT22;4746;35.664;139.738;2023-07-22T11:26:08;29.10;99.90
9414;DHT22;4746;35.664;139.738;2023-07-22T11:28:36;29.10;99.90
9414;DHT22;4746;35.664;139.738;2023-07-22T11:31:05;29.00;99.90
9414;DHT22;4746;35.664;139.738;2023-07-22T11:33:40;29.00;99.90
9414;DHT22;4746;35.664;139.738;2023-07-22T11:36:10;29.00;99.90
9414;DHT22;4746;35.664;139.738;2023-07-22T11:38:38;28.90;99.90
9414;DHT22;4746;35.664;139.738;2023-07-22T11:41:06;28.90;99.90
9414;DHT22;4746;35.664;139.738;2023-07-22T11:43:35;28.90;99.90
9414;DHT22;4746;35.664;139.738;2023-07-22T11:46:05;28.80;99.90
9414;DHT22;4746;35.664;139.738;2023-07-22T11:48:33;28.80;99.90
9414;DHT22;4746;35.664;139.738;2023-07-22T11:51:01;28.90;99.90
9414;DHT22;4746;35.664;139.738;2023-07-22T11:53:29;28.90;99.90
9414;DHT22;4746;35.664;139.738;2023-07-22T11:55:57;28.90;99.90
9414;DHT22;4746;35.664;139.738;2023-07-22T11:58:26;28.90;99.90
9414;DHT22;4746;35.664;139.738;2023-07-22T12:01:10;28.80;99.90
9414;DHT22;4746;35.664;139.738;2023-07-22T12:03:37;28.90;99.90
9414;DHT22;4746;35.664;139.738;2023-07-22T12:06:07;28.80;99.90
9414;DHT22;4746;35.664;139.738;2023-07-22T12:08:36;28.70;99.90
9414;DHT22;4746;35.664;139.738;2023-07-22T12:11:22;28.60;99.90
9414;DHT22;4746;35.664;139.738;2023-07-22T12:14:12;28.50;99.90
9414;DHT22;4746;35.664;139.738;2023-07-22T12:16:42;28.50;99.90
9414;DHT22;4746;35.664;139.738;2023-07-22T12:19:09;28.50;99.90
9414;DHT22;4746;35.664;139.738;2023-07-22T12:21:38;28.50;99.90
9414;DHT22;4746;35.664;139.738;2023-07-22T12:24:05;28.50;99.90
9414;DHT22;4746;35.664;139.738;2023-07-22T12:26:33;28.50;99.90
9414;DHT22;4746;35.664;139.738;2023-07-22T12:29:00;28.50;99.90
9414;DHT22;4746;35.664;139.738;2023-07-22T12:31:28;28.40;99.90
9414;DHT22;4746;35.664;139.738;2023-07-22T12:33:55;28.40;99.90
9414;DHT22;4746;35.664;139.738;2023-07-22T12:36:23;28.50;99.90
9414;DHT22;4746;35.664;139.738;2023-07-22T12:38:51;28.40;99.90
9414;DHT22;4746;35.664;139.738;2023-07-22T12:41:19;28.40;99.90
9414;DHT22;4746;35.664;139.738;2023-07-22T12:43:47;28.40;99.90
9414;DHT22;4746;35.664;139.738;2023-07-22T12:46:15;28.40;99.90
9414;DHT22;4746;35.664;139.738;2023-07-22T12:48:43;28.40;99.90
9414;DHT22;4746;35.664;139.738;2023-07-22T12:51:10;28.30;99.90
9414;DHT22;4746;35.664;139.738;2023-07-22T12:53:39;28.30;99.90
9414;DHT22;4746;35.664;139.738;2023-07-22T12:56:06;28.30;99.90
9414;DHT22;4746;35.664;139.738;2023-07-22T12:58:34;28.30;99.90
9414;DHT22;4746;35.664;139.738;2023-07-22T13:01:01;28.20;99.90
9414;DHT22;4746;35.664;139.738;2023-07-22T13:03:29;28.20;99.90
9414;DHT22;4746;35.664;139.738;2023-07-22T13:05:56;28.20;99.90
9414;DHT22;4746;35.664;139.738;2023-07-22T13:08:24;28.20;99.90
9414;DHT22;4746;35.664;139.738;2023-07-22T13:10:52;28.20;99.90
9414;DHT22;4746;35.664;139.738;2023-07-22T13:13:50;28.20;99.90
9414;DHT22;4746;35.664;139.738;2023-07-22T13:16:52;28.20;99.90
9414;DHT22;4746;35.664;139.738;2023-07-22T13:19:20;28.20;99.90
9414;DHT22;4746;35.664;139.738;2023-07-22T13:21:48;28.10;99.90
9414;DHT22;4746;35.664;139.738;2023-07-22T13:24:15;28.10;99.90
9414;DHT22;4746;35.664;139.738;2023-07-22T13:26:43;28.10;99.90
9414;DHT22;4746;35.664;139.738;2023-07-22T13:29:12;28.10;99.90
9414;DHT22;4746;35.664;139.738;2023-07-22T13:31:39;28.00;99.90
9414;DHT22;4746;35.664;139.738;2023-07-22T13:34:10;28.00;99.90
9414;DHT22;4746;35.664;139.738;2023-07-22T13:36:37;28.00;99.90
9414;DHT22;4746;35.664;139.738;2023-07-22T13:39:05;28.00;99.90
9414;DHT22;4746;35.664;139.738;2023-07-22T13:41:36;28.00;99.90
9414;DHT22;4746;35.664;139.738;2023-07-22T13:44:05;28.00;99.90
9414;DHT22;4746;35.664;139.738;2023-07-22T13:46:32;28.00;99.90
9414;DHT22;4746;35.664;139.738;2023-07-22T13:49:00;28.00;99.90
9414;DHT22;4746;35.664;139.738;2023-07-22T13:51:27;28.00;99.90
9414;DHT22;4746;35.664;139.738;2023-07-22T13:53:55;28.00;99.90
9414;DHT22;4746;35.664;139.738;2023-07-22T13:56:24;28.00;99.90
9414;DHT22;4746;35.664;139.738;2023-07-22T13:58:54;27.90;99.90
9414;DHT22;4746;35.664;139.738;2023-07-22T14:01:23;28.00;99.90
9414;DHT22;4746;35.664;139.738;2023-07-22T14:03:50;27.90;99.90
9414;DHT22;4746;35.664;139.738;2023-07-22T14:06:18;27.90;99.90
9414;DHT22;4746;35.664;139.738;2023-07-22T14:08:45;27.90;99.90
9414;DHT22;4746;35.664;139.738;2023-07-22T14:11:13;27.90;99.90
9414;DHT22;4746;35.664;139.738;2023-07-22T14:13:41;27.80;99.90
9414;DHT22;4746;35.664;139.738;2023-07-22T14:16:08;27.80;99.90
9414;DHT22;4746;35.664;139.738;2023-07-22T14:18:36;27.80;99.90
9414;DHT22;4746;35.664;139.738;2023-07-22T14:21:04;27.80;99.90
9414;DHT22;4746;35.664;139.738;2023-07-22T14:23:32;27.80;99.90
9414;DHT22;4746;35.664;139.738;2023-07-22T14:26:01;27.80;99.90
9414;DHT22;4746;35.664;139.738;2023-07-22T14:28:29;27.80;99.90
9414;DHT22;4746;35.664;139.738;2023-07-22T14:30:56;27.80;99.90
9414;DHT22;4746;35.664;139.738;2023-07-22T14:33:24;27.80;99.90
9414;DHT22;4746;35.664;139.738;2023-07-22T14:35:51;27.80;99.90
9414;DHT22;4746;35.664;139.738;2023-07-22T14:38:18;27.80;99.90
9414;DHT22;4746;35.664;139.738;2023-07-22T14:40:46;27.80;99.90
9414;DHT22;4746;35.664;139.738;2023-07-22T14:43:13;27.70;99.90
9414;DHT22;4746;35.664;139.738;2023-07-22T14:45:41;27.70;99.90
9414;DHT22;4746;35.664;139.738;2023-07-22T14:48:08;27.60;99.90
9414;DHT22;4746;35.664;139.738;2023-07-22T14:50:36;27.60;99.90
9414;DHT22;4746;35.664;139.738;2023-07-22T14:53:04;27.70;99.90
9414;DHT22;4746;35.664;139.738;2023-07-22T14:55:31;27.60;99.90
9414;DHT22;4746;35.664;139.738;2023-07-22T14:57:59;27.60;99.90
9414;DHT22;4746;35.664;139.738;2023-07-22T15:00:26;27.60;99.90
9414;DHT22;4746;35.664;139.738;2023-07-22T15:02:54;27.60;99.90
9414;DHT22;4746;35.664;139.738;2023-07-22T15:05:21;27.60;99.90
9414;DHT22;4746;35.664;139.738;2023-07-22T15:07:50;27.60;99.90
9414;DHT22;4746;35.664;139.738;2023-07-22T15:10:18;27.50;99.90
9414;DHT22;4746;35.664;139.738;2023-07-22T15:12:45;27.60;99.90
9414;DHT22;4746;35.664;139.738;2023-07-22T15:15:13;27.50;99.90
9414;DHT22;4746;35.664;139.738;2023-07-22T15:17:41;27.40;99.90
9414;DHT22;4746;35.664;139.738;2023-07-22T15:20:11;27.50;99.90
9414;DHT22;4746;35.664;139.738;2023-07-22T15:22:41;27.50;99.90
9414;DHT22;4746;35.664;139.738;2023-07-22T15:25:08;27.50;99.90
9414;DHT22;4746;35.664;139.738;2023-07-22T15:27:36;27.50;99.90
9414;DHT22;4746;35.664;139.738;2023-07-22T15:30:04;27.50;99.90
9414;DHT22;4746;35.664;139.738;2023-07-22T15:32:32;27.50;99.90
9414;DHT22;4746;35.664;139.738;2023-07-22T15:35:00;27.40;99.90
9414;DHT22;4746;35.664;139.738;2023-07-22T15:37:30;27.40;99.90
9414;DHT22;4746;35.664;139.738;2023-07-22T15:39:57;27.40;99.90
9414;DHT22;4746;35.664;139.738;2023-07-22T15:42:24;27.40;99.90